Time;durP1;ratioP1;P1;durP2;ratioP2;P2;SDS_P1;SDS_P2;PMS_P1;PMS_P2;Temp;Humidity;BMP_temperature;BMP_pressure;BME280_temperature;BME280_humidity;BME280_pressure;Samples;Min_cycle;Max_cycle;Signal;HPM_P1;HPM_P2
2021/04/03 00:00:47;;;;;;;11.60;9.73;;;;;;;8.65;53.78;98472.84;5036596;28;20474;-60
2021/04/03 00:03:15;;;;;;;11.57;9.97;;;;;;;8.67;53.62;98464.28;5032702;28;20044;-60
2021/04/03 00:05:41;;;;;;;12.73;9.77;;;;;;;8.57;53.51;98477.22;5038501;28;20279;-61
2021/04/03 00:08:08;;;;;;;14.83;10.90;;;;;;;8.53;53.42;98478.94;5038065;28;20021;-62
2021/04/03 00:10:53;;;;;;;12.53;9.67;;;;;;;8.56;53.01;98480.63;5036134;28;20062;-60
2021/04/03 00:13:21;;;;;;;11.07;9.27;;;;;;;8.44;52.97;98474.00;5038178;28;20025;-62
2021/04/03 00:15:47;;;;;;;12.47;9.37;;;;;;;8.46;51.85;98459.47;5039809;28;20084;-60
2021/04/03 00:18:14;;;;;;;14.50;9.50;;;;;;;8.44;51.87;98468.03;5034789;28;20037;-60
2021/04/03 00:20:40;;;;;;;12.87;9.67;;;;;;;8.26;52.73;98446.09;5039352;28;20026;-60
2021/04/03 00:23:05;;;;;;;12.97;9.07;;;;;;;8.32;51.95;98460.53;5035550;28;20060;-60
2021/04/03 00:25:32;;;;;;;12.50;10.07;;;;;;;8.39;52.10;98457.88;5038467;28;20047;-60
2021/04/03 00:27:57;;;;;;;11.63;8.63;;;;;;;8.20;51.70;98457.22;5038195;28;20025;-60
2021/04/03 00:30:23;;;;;;;11.33;8.50;;;;;;;8.18;51.92;98453.84;5039179;28;20039;-59
2021/04/03 00:32:52;;;;;;;12.73;8.90;;;;;;;8.14;51.56;98429.22;5050467;28;20029;-60
2021/04/03 00:35:23;;;;;;;13.97;8.30;;;;;;;8.09;51.35;98441.19;5039334;28;20087;-60
2021/04/03 00:37:50;;;;;;;12.93;9.40;;;;;;;8.03;51.18;98446.38;5035098;28;20029;-60
2021/04/03 00:40:21;;;;;;;13.13;9.60;;;;;;;7.97;51.62;98440.50;5038367;28;20029;-60
2021/04/03 00:42:48;;;;;;;12.37;8.57;;;;;;;8.07;50.45;98439.50;5035970;28;20032;-60
2021/04/03 00:45:14;;;;;;;10.57;8.30;;;;;;;8.09;50.92;98438.63;5036197;28;20037;-61
2021/04/03 00:47:41;;;;;;;11.47;9.10;;;;;;;8.11;50.75;98442.00;5037111;28;20028;-61
2021/04/03 00:50:07;;;;;;;14.03;8.90;;;;;;;8.05;51.20;98433.59;5039621;28;20347;-61
2021/04/03 00:52:34;;;;;;;13.83;9.47;;;;;;;8.09;51.64;98438.63;5039188;28;20044;-61
2021/04/03 00:54:59;;;;;;;11.30;8.93;;;;;;;8.07;51.31;98430.16;5036648;28;20075;-61
2021/04/03 00:57:25;;;;;;;14.47;10.30;;;;;;;8.10;51.43;98427.56;5039877;28;20365;-60
2021/04/03 00:59:50;;;;;;;14.13;9.60;;;;;;;8.10;51.28;98426.72;5039132;28;20045;-61
2021/04/03 01:02:16;;;;;;;11.77;9.10;;;;;;;8.10;51.86;98421.63;5039319;28;20094;-61
2021/04/03 01:04:41;;;;;;;12.77;9.47;;;;;;;8.13;52.08;98424.97;5038799;28;20029;-61
2021/04/03 01:07:06;;;;;;;12.63;8.87;;;;;;;8.03;52.03;98418.28;5037823;28;20651;-61
2021/04/03 01:09:37;;;;;;;10.30;8.83;;;;;;;7.85;52.47;98418.50;5039446;28;20099;-60
2021/04/03 01:12:24;;;;;;;14.40;8.87;;;;;;;7.84;52.60;98414.28;5038110;28;20052;-60
2021/04/03 01:14:58;;;;;;;11.80;7.80;;;;;;;7.77;53.26;98433.91;5036075;28;20033;-62
2021/04/03 01:17:31;;;;;;;14.87;9.40;;;;;;;7.78;53.49;98437.28;5036804;28;20395;-63
2021/04/03 01:20:06;;;;;;;15.00;9.57;;;;;;;7.62;54.08;98436.63;5033836;28;20112;-61
2021/04/03 01:22:38;;;;;;;14.87;9.30;;;;;;;7.68;53.93;98431.44;5051345;28;20038;-60
2021/04/03 01:25:48;;;;;;;11.87;9.10;;;;;;;7.60;54.79;98437.47;5036224;28;20025;-62
2021/04/03 01:28:43;;;;;;;14.70;9.93;;;;;;;7.58;54.26;98447.72;5038959;28;20041;-60
2021/04/03 01:31:10;;;;;;;14.07;9.97;;;;;;;7.66;54.86;98437.44;5037180;28;20101;-61
2021/04/03 01:33:41;;;;;;;13.43;10.03;;;;;;;7.55;54.07;98417.16;5034982;28;20025;-62
2021/04/03 01:36:17;;;;;;;15.70;9.93;;;;;;;7.58;53.85;98439.22;5035165;28;20037;-62
2021/04/03 01:39:06;;;;;;;12.23;8.67;;;;;;;7.59;53.17;98438.38;5037234;28;20079;-62
2021/04/03 01:41:35;;;;;;;14.80;9.67;;;;;;;7.61;53.31;98432.38;5035128;28;20771;-60
2021/04/03 01:44:03;;;;;;;12.60;9.43;;;;;;;7.60;53.66;98434.94;5042231;28;20150;-60
2021/04/03 01:46:34;;;;;;;11.90;8.87;;;;;;;7.52;53.35;98421.41;5033811;28;20083;-60
2021/04/03 01:49:04;;;;;;;13.47;9.03;;;;;;;7.56;53.73;98428.16;5052164;28;20444;-61
2021/04/03 01:51:31;;;;;;;14.83;9.73;;;;;;;7.52;54.04;98418.88;5039260;28;20022;-62
2021/04/03 01:53:58;;;;;;;15.90;9.93;;;;;;;7.43;54.05;98424.91;5041177;28;20040;-62
2021/04/03 01:56:25;;;;;;;14.70;9.93;;;;;;;7.49;54.49;98431.66;5037562;28;20112;-61
2021/04/03 01:58:52;;;;;;;14.77;9.70;;;;;;;7.46;54.58;98437.66;5035471;28;20163;-61
2021/04/03 02:01:18;;;;;;;16.27;10.63;;;;;;;7.46;54.06;98426.59;5035966;28;20030;-60
2021/04/03 02:03:46;;;;;;;14.60;10.10;;;;;;;7.42;54.89;98428.34;5034121;28;20037;-62
2021/04/03 02:06:12;;;;;;;13.33;8.80;;;;;;;7.39;55.10;98443.66;5037089;28;20033;-60
2021/04/03 02:08:40;;;;;;;13.00;9.03;;;;;;;7.45;55.11;98435.09;5034954;28;20106;-60
2021/04/03 02:11:07;;;;;;;14.13;9.87;;;;;;;7.41;55.17;98428.34;5035543;28;20365;-62
2021/04/03 02:13:34;;;;;;;11.53;9.17;;;;;;;7.39;55.12;98419.84;5033641;28;20074;-61
2021/04/03 02:16:01;;;;;;;10.87;8.47;;;;;;;7.44;55.30;98431.69;5033122;28;20071;-61
2021/04/03 02:18:29;;;;;;;13.03;9.73;;;;;;;7.40;55.60;98434.28;5032831;28;20283;-60
2021/04/03 02:21:06;;;;;;;12.47;9.20;;;;;;;7.28;55.70;98436.09;5035570;28;20129;-61
2021/04/03 02:23:33;;;;;;;13.83;9.83;;;;;;;7.37;55.97;98447.09;5034660;28;20044;-60
2021/04/03 02:25:59;;;;;;;15.03;9.90;;;;;;;7.29;56.30;98440.34;5033819;28;20330;-60
2021/04/03 02:28:25;;;;;;;12.40;9.27;;;;;;;7.30;56.02;98438.63;5033392;28;20033;-60
2021/04/03 02:30:51;;;;;;;12.40;9.63;;;;;;;7.35;55.91;98457.28;5034044;28;20144;-60
2021/04/03 02:33:17;;;;;;;11.97;9.33;;;;;;;7.33;56.14;98451.38;5033372;28;20033;-60
2021/04/03 02:35:43;;;;;;;11.80;9.00;;;;;;;7.32;55.93;98450.53;5034233;28;20030;-60
2021/04/03 02:38:08;;;;;;;14.03;9.77;;;;;;;7.29;55.87;98453.09;5035745;28;20037;-60
2021/04/03 02:40:34;;;;;;;14.27;10.00;;;;;;;7.40;56.02;98449.59;5035202;28;20427;-60
2021/04/03 02:43:18;;;;;;;11.20;9.83;;;;;;;7.39;56.03;98445.34;5037823;28;20040;-60
2021/04/03 02:45:50;;;;;;;10.97;8.47;;;;;;;7.42;55.99;98441.09;5039389;28;20025;-60
2021/04/03 02:48:21;;;;;;;13.03;9.63;;;;;;;7.30;55.80;98438.63;5040243;28;20041;-61
2021/04/03 02:50:51;;;;;;;13.23;9.60;;;;;;;7.28;56.15;98453.97;5039612;28;20057;-60
2021/04/03 02:53:20;;;;;;;14.00;9.30;;;;;;;7.26;56.28;98453.09;5037205;28;20036;-60
2021/04/03 02:55:53;;;;;;;13.07;9.07;;;;;;;7.33;56.19;98457.31;5033278;28;20067;-60
2021/04/03 02:58:21;;;;;;;12.87;9.43;;;;;;;7.27;56.12;98466.72;5033848;28;20064;-63
2021/04/03 03:00:47;;;;;;;12.63;8.97;;;;;;;7.19;55.86;98460.84;5039175;28;20053;-63
2021/04/03 03:03:14;;;;;;;13.43;9.93;;;;;;;7.23;55.62;98465.03;5037400;28;20128;-63
2021/04/03 03:05:42;;;;;;;12.43;9.33;;;;;;;7.22;55.93;98455.69;5036786;28;20033;-63
2021/04/03 03:08:10;;;;;;;10.97;8.60;;;;;;;7.23;55.37;98475.25;5041112;28;20040;-62
2021/04/03 03:10:37;;;;;;;11.97;8.80;;;;;;;7.16;55.73;98471.91;5040199;28;20477;-63
2021/04/03 03:13:04;;;;;;;11.77;9.50;;;;;;;7.19;55.52;98471.88;5037101;28;20120;-62
2021/04/03 03:15:31;;;;;;;10.37;8.60;;;;;;;7.15;55.59;98474.47;5038554;28;20546;-62
2021/04/03 03:17:57;;;;;;;13.33;11.50;;;;;;;7.12;55.45;98471.94;5048655;28;20035;-63
2021/04/03 03:20:23;;;;;;;12.17;9.80;;;;;;;7.03;55.59;98469.47;5042769;28;20037;-63
2021/04/03 03:22:49;;;;;;;16.43;10.03;;;;;;;6.98;55.76;98466.94;5039396;28;20360;-63
2021/04/03 03:25:15;;;;;;;13.50;10.40;;;;;;;7.00;55.66;98477.97;5039622;28;20064;-63
2021/04/03 03:27:46;;;;;;;14.73;10.40;;;;;;;7.00;55.74;98472.03;5042703;28;20033;-63
2021/04/03 03:30:15;;;;;;;14.87;10.63;;;;;;;7.02;55.84;98481.34;5037350;28;20214;-63
2021/04/03 03:32:41;;;;;;;14.80;11.20;;;;;;;6.93;56.14;98491.63;5054617;28;20075;-62
2021/04/03 03:35:07;;;;;;;13.63;10.40;;;;;;;6.91;56.33;98493.34;5041223;28;20041;-62
2021/04/03 03:37:34;;;;;;;13.20;10.07;;;;;;;6.96;55.85;98483.13;5037280;28;20053;-62
2021/04/03 03:40:00;;;;;;;15.10;9.53;;;;;;;6.84;55.83;98486.56;5037005;28;20128;-62
2021/04/03 03:42:27;;;;;;;14.17;10.00;;;;;;;6.85;55.78;98481.47;5038783;28;20117;-63
2021/04/03 03:44:54;;;;;;;11.97;9.90;;;;;;;6.79;56.06;98491.69;5036924;28;20041;-62
2021/04/03 03:47:20;;;;;;;14.83;10.57;;;;;;;6.75;56.20;98496.81;5040321;28;20040;-62
2021/04/03 03:49:45;;;;;;;14.17;10.57;;;;;;;6.70;55.78;98483.28;5041037;28;20033;-61
2021/04/03 03:52:10;;;;;;;14.23;10.07;;;;;;;6.76;55.88;98496.81;5040019;28;20124;-63
2021/04/03 03:54:36;;;;;;;12.03;10.00;;;;;;;6.65;55.73;98485.00;5036471;28;20390;-62
2021/04/03 03:57:02;;;;;;;14.03;10.10;;;;;;;6.69;55.53;98497.72;5037466;28;20041;-62
2021/04/03 03:59:28;;;;;;;18.80;10.87;;;;;;;6.65;55.87;98487.56;5039031;28;20091;-62
2021/04/03 04:01:53;;;;;;;11.20;8.90;;;;;;;6.66;55.63;98489.25;5037795;28;20041;-62
2021/04/03 04:04:18;;;;;;;16.00;9.70;;;;;;;6.70;55.82;98485.84;5039695;28;20330;-62
2021/04/03 04:06:44;;;;;;;13.97;9.73;;;;;;;6.72;56.07;98490.06;5038689;28;20032;-62
2021/04/03 04:09:09;;;;;;;12.07;8.77;;;;;;;6.65;55.75;98497.75;5037623;28;20338;-62
2021/04/03 04:11:34;;;;;;;12.83;9.90;;;;;;;6.66;56.41;98486.72;5036263;28;20033;-62
2021/04/03 04:14:00;;;;;;;12.90;9.70;;;;;;;6.76;55.56;98490.88;5039115;28;20406;-62
2021/04/03 04:16:25;;;;;;;13.90;10.17;;;;;;;6.74;55.57;98492.59;5038576;28;20037;-62
2021/04/03 04:18:51;;;;;;;14.87;9.97;;;;;;;6.64;55.83;98496.91;5037620;28;20037;-63
2021/04/03 04:21:17;;;;;;;12.33;9.37;;;;;;;6.71;55.60;98498.53;5038043;28;20044;-63
2021/04/03 04:23:44;;;;;;;13.43;8.87;;;;;;;6.75;55.91;98501.91;5037248;28;20077;-62
2021/04/03 04:26:10;;;;;;;13.03;9.70;;;;;;;6.55;55.91;98491.00;5037367;28;20025;-62
2021/04/03 04:28:36;;;;;;;12.57;10.07;;;;;;;6.61;55.65;98502.00;5042656;28;20072;-62
2021/04/03 04:31:02;;;;;;;11.37;8.90;;;;;;;6.50;55.84;98510.53;5036426;28;20044;-62
2021/04/03 04:33:28;;;;;;;10.63;8.53;;;;;;;6.50;55.42;98515.63;5036370;28;20037;-62
2021/04/03 04:35:53;;;;;;;13.10;9.27;;;;;;;6.55;55.70;98514.75;5037195;28;20323;-63
2021/04/03 04:38:18;;;;;;;12.93;9.90;;;;;;;6.57;55.72;98522.41;5036839;28;20029;-62
2021/04/03 04:40:44;;;;;;;11.73;8.90;;;;;;;6.48;55.62;98520.75;5037198;28;20025;-62
2021/04/03 04:43:11;;;;;;;11.53;8.37;;;;;;;6.52;55.08;98530.06;5038241;28;20115;-61
2021/04/03 04:45:37;;;;;;;13.60;8.03;;;;;;;6.30;55.66;98521.66;5037895;28;20041;-62
2021/04/03 04:48:02;;;;;;;11.23;8.23;;;;;;;6.35;55.39;98536.94;5042506;28;20056;-62
2021/04/03 04:50:28;;;;;;;12.77;7.77;;;;;;;6.38;55.67;98534.38;5037635;28;20057;-61
2021/04/03 04:52:53;;;;;;;13.13;8.00;;;;;;;6.37;55.34;98530.97;5036826;28;20030;-63
2021/04/03 04:55:19;;;;;;;11.93;8.33;;;;;;;6.40;55.51;98548.81;5038531;28;20044;-63
2021/04/03 04:57:44;;;;;;;14.50;7.77;;;;;;;6.45;54.99;98550.47;5036134;28;20116;-62
2021/04/03 05:00:10;;;;;;;10.60;8.20;;;;;;;6.45;55.00;98551.31;5035987;28;20176;-62
2021/04/03 05:02:35;;;;;;;11.67;8.50;;;;;;;6.51;54.95;98558.06;5036911;28;20124;-62
2021/04/03 05:05:01;;;;;;;14.60;9.00;;;;;;;6.51;54.91;98556.38;5036951;28;20116;-62
2021/04/03 05:07:26;;;;;;;11.20;8.93;;;;;;;6.59;54.25;98558.88;5036593;28;20084;-62
2021/04/03 05:09:52;;;;;;;11.97;8.17;;;;;;;6.45;54.55;98560.66;5036611;28;20396;-62
2021/04/03 05:12:17;;;;;;;12.17;7.50;;;;;;;6.61;54.50;98552.09;5041266;28;20037;-62
2021/04/03 05:14:43;;;;;;;8.93;7.93;;;;;;;6.58;54.47;98552.94;5044657;28;20081;-61
2021/04/03 05:17:08;;;;;;;12.83;8.17;;;;;;;6.55;54.80;98547.03;5033554;28;20104;-62
2021/04/03 05:19:33;;;;;;;10.50;7.70;;;;;;;6.57;54.46;98553.81;5040162;28;20405;-62
2021/04/03 05:21:59;;;;;;;11.20;8.20;;;;;;;6.65;54.63;98562.28;5035331;28;20065;-62
2021/04/03 05:24:24;;;;;;;11.67;9.23;;;;;;;6.64;54.43;98560.56;5037156;28;20116;-62
2021/04/03 05:26:50;;;;;;;12.20;8.00;;;;;;;6.68;54.25;98569.03;5039172;28;20389;-62
2021/04/03 05:29:15;;;;;;;9.73;7.80;;;;;;;6.66;53.85;98566.50;5051389;28;20043;-62
2021/04/03 05:31:40;;;;;;;9.73;7.20;;;;;;;6.68;53.74;98572.44;5042507;28;20040;-62
2021/04/03 05:34:06;;;;;;;13.37;7.23;;;;;;;6.65;53.67;98553.78;5036682;28;20037;-61
2021/04/03 05:36:31;;;;;;;11.97;6.57;;;;;;;6.75;53.21;98573.25;5036464;28;20329;-62
2021/04/03 05:38:57;;;;;;;12.70;8.20;;;;;;;6.71;53.25;98572.41;5034923;28;20397;-61
2021/04/03 05:41:22;;;;;;;10.63;7.30;;;;;;;6.89;53.28;98574.88;5039516;28;20068;-62
2021/04/03 05:43:51;;;;;;;10.10;7.10;;;;;;;6.85;52.99;98559.63;5036160;28;20033;-62
2021/04/03 05:46:21;;;;;;;11.50;7.50;;;;;;;7.04;53.00;98568.88;5039554;28;20032;-62
2021/04/03 05:48:47;;;;;;;12.77;7.57;;;;;;;6.98;52.44;98560.38;5025997;28;20036;-62
2021/04/03 05:51:16;;;;;;;7.23;4.97;;;;;;;7.06;52.20;98564.59;5034290;28;20041;-62
2021/04/03 05:53:42;;;;;;;6.90;5.00;;;;;;;6.91;52.17;98557.03;5035863;28;20438;-61
2021/04/03 05:56:08;;;;;;;12.83;7.60;;;;;;;7.03;51.94;98567.16;5039301;28;20048;-62
2021/04/03 05:58:36;;;;;;;7.53;5.80;;;;;;;7.07;51.74;98562.88;5038182;28;20033;-61
2021/04/03 06:01:03;;;;;;;9.37;5.77;;;;;;;7.20;52.04;98573.00;5037321;28;20401;-62
2021/04/03 06:03:29;;;;;;;9.00;5.80;;;;;;;7.06;51.60;98571.38;5035955;28;20128;-62
2021/04/03 06:05:54;;;;;;;9.10;5.80;;;;;;;6.96;51.00;98564.66;5038045;28;20438;-62
2021/04/03 06:08:20;;;;;;;7.80;5.20;;;;;;;7.10;50.55;98567.97;5038564;28;20036;-62
2021/04/03 06:11:13;;;;;;;8.07;5.47;;;;;;;7.22;50.42;98563.63;5038526;28;20263;-61
2021/04/03 06:13:40;;;;;;;9.27;5.67;;;;;;;7.40;50.50;98565.22;5036871;28;20111;-61
2021/04/03 06:16:27;;;;;;;8.33;5.30;;;;;;;7.58;48.84;98567.63;5038335;28;20155;-61
2021/04/03 06:19:14;;;;;;;6.60;5.50;;;;;;;7.53;49.71;98591.47;5022924;28;20034;-62
2021/04/03 06:21:42;;;;;;;6.27;5.50;;;;;;;7.70;48.69;98571.78;5034246;28;20103;-61
2021/04/03 06:24:36;;;;;;;9.40;5.23;;;;;;;7.55;49.32;98589.75;5038550;28;20060;-61
2021/04/03 06:27:19;;;;;;;7.67;5.17;;;;;;;7.23;49.33;98603.56;5033128;28;20389;-61
2021/04/03 06:29:48;;;;;;;6.20;5.00;;;;;;;7.10;49.43;98599.41;5034568;28;20104;-61
2021/04/03 06:32:17;;;;;;;6.93;5.20;;;;;;;7.21;49.11;98604.44;5034436;28;20397;-62
2021/04/03 06:34:47;;;;;;;5.43;4.63;;;;;;;6.95;49.48;98613.94;5037718;28;20037;-62
2021/04/03 06:37:13;;;;;;;6.10;5.23;;;;;;;6.92;49.82;98591.84;5040006;28;20036;-61
2021/04/03 06:40:05;;;;;;;7.17;5.33;;;;;;;6.93;50.21;98593.53;5040491;28;20029;-61
2021/04/03 06:42:47;;;;;;;7.47;5.17;;;;;;;6.91;49.94;98609.72;5042554;28;20057;-60
2021/04/03 06:45:34;;;;;;;6.30;5.23;;;;;;;6.85;50.76;98598.69;5040860;28;20065;-60
2021/04/03 06:48:03;;;;;;;9.30;5.57;;;;;;;7.12;50.53;98617.25;5038862;28;20041;-60
2021/04/03 06:50:31;;;;;;;8.73;5.47;;;;;;;7.46;49.99;98594.94;5027144;28;20029;-63
2021/04/03 06:52:59;;;;;;;10.83;5.67;;;;;;;7.36;49.95;98606.88;5038507;28;20112;-62
2021/04/03 06:55:24;;;;;;;7.80;5.70;;;;;;;7.17;49.95;98608.69;5038044;28;20026;-62
2021/04/03 06:57:53;;;;;;;6.50;4.53;;;;;;;7.41;49.86;98619.63;5039365;28;20091;-60
2021/04/03 07:00:19;;;;;;;7.93;5.30;;;;;;;7.57;49.63;98614.38;5031148;28;20046;-62
2021/04/03 07:02:47;;;;;;;7.70;5.23;;;;;;;7.89;48.66;98608.19;5041538;28;20112;-62
2021/04/03 07:05:14;;;;;;;6.37;5.27;;;;;;;7.79;48.31;98603.16;5041722;28;20099;-61
2021/04/03 07:07:42;;;;;;;8.57;4.60;;;;;;;7.92;48.38;98608.16;5039129;28;20049;-61
2021/04/03 07:10:09;;;;;;;7.33;5.00;;;;;;;7.71;48.14;98619.41;5054003;28;20029;-62
2021/04/03 07:12:36;;;;;;;7.97;5.27;;;;;;;7.81;48.49;98616.75;5036770;28;20041;-61
2021/04/03 07:15:02;;;;;;;10.70;5.37;;;;;;;7.84;48.80;98610.78;5035616;28;20045;-62
2021/04/03 07:17:29;;;;;;;5.33;4.47;;;;;;;7.87;48.08;98604.78;5038286;28;20267;-62
2021/04/03 07:19:56;;;;;;;6.50;3.83;;;;;;;7.98;47.12;98597.88;5030167;28;20079;-61
2021/04/03 07:22:22;;;;;;;10.07;5.70;;;;;;;7.88;47.90;98594.59;5040056;28;20037;-61
2021/04/03 07:24:47;;;;;;;7.63;5.07;;;;;;;7.85;47.07;98588.66;5038280;28;20030;-62
2021/04/03 07:27:14;;;;;;;7.30;5.17;;;;;;;8.14;47.53;98597.75;5039530;28;20417;-62
2021/04/03 07:29:42;;;;;;;6.10;4.63;;;;;;;8.08;47.51;98594.38;5042060;28;20884;-62
2021/04/03 07:32:08;;;;;;;5.97;4.47;;;;;;;7.70;47.55;98597.28;5038513;28;20052;-62
2021/04/03 07:34:40;;;;;;;6.00;4.47;;;;;;;7.87;48.07;98594.59;5037520;28;20042;-62
2021/04/03 07:37:11;;;;;;;5.80;4.70;;;;;;;8.14;47.70;98600.31;5039089;28;20088;-62
2021/04/03 07:39:39;;;;;;;6.10;5.10;;;;;;;8.28;47.35;98603.53;5040695;28;20045;-62
2021/04/03 07:42:06;;;;;;;7.37;4.80;;;;;;;8.30;47.30;98600.16;5040062;28;20282;-62
2021/04/03 07:44:35;;;;;;;7.03;4.23;;;;;;;8.66;46.94;98604.84;5038271;28;20028;-62
2021/04/03 07:47:20;;;;;;;6.70;4.20;;;;;;;8.86;46.35;98614.84;5036401;28;20124;-62
2021/04/03 07:49:47;;;;;;;3.97;3.55;;;;;;;8.69;44.95;98623.56;5036086;28;20079;-62
2021/04/03 07:52:13;;;;;;;6.23;3.80;;;;;;;8.58;45.08;98604.09;5034636;28;20096;-62
2021/04/03 07:54:39;;;;;;;5.10;4.20;;;;;;;8.78;44.66;98601.31;5038420;28;20049;-62
2021/04/03 07:57:09;;;;;;;7.47;3.80;;;;;;;8.73;44.14;98616.72;5037272;28;20147;-62
2021/04/03 07:59:44;;;;;;;5.40;3.83;;;;;;;8.56;44.68;98613.50;5039210;28;20097;-62
2021/04/03 08:02:20;;;;;;;6.22;4.00;;;;;;;8.66;45.07;98604.84;5038032;28;20074;-62
2021/04/03 08:04:46;;;;;;;6.73;4.17;;;;;;;8.84;44.64;98614.88;5036625;28;20064;-62
2021/04/03 08:07:12;;;;;;;6.13;3.83;;;;;;;9.00;43.87;98595.91;5038394;28;20108;-62
2021/04/03 08:09:37;;;;;;;6.00;3.17;;;;;;;8.92;43.78;98601.97;5038770;28;20061;-64
2021/04/03 08:12:07;;;;;;;3.63;2.73;;;;;;;8.61;43.34;98596.41;5037732;28;20047;-63
2021/04/03 08:14:34;;;;;;;5.53;2.97;;;;;;;8.38;43.71;98606.88;5037107;28;20041;-62
2021/04/03 08:17:01;;;;;;;4.97;3.70;;;;;;;8.16;44.69;98608.78;5035517;28;20041;-62
2021/04/03 08:19:32;;;;;;;4.53;3.10;;;;;;;8.44;44.25;98611.09;5037507;28;20056;-62
2021/04/03 08:21:58;;;;;;;5.03;2.93;;;;;;;8.76;44.29;98605.59;5035764;28;20398;-61
2021/04/03 08:24:23;;;;;;;6.67;3.07;;;;;;;8.80;44.15;98622.59;5042314;28;20063;-62
2021/04/03 08:26:50;;;;;;;3.77;3.30;;;;;;;9.00;44.02;98616.34;5040272;28;20418;-61
2021/04/03 08:29:39;;;;;;;4.43;4.03;;;;;;;8.96;44.84;98637.72;5036401;28;20070;-62
2021/04/03 08:32:06;;;;;;;6.90;3.87;;;;;;;8.58;46.43;98638.16;5034543;28;20270;-63
2021/04/03 08:34:32;;;;;;;4.67;3.30;;;;;;;8.61;47.92;98639.84;5035316;28;20033;-62
2021/04/03 08:36:58;;;;;;;6.33;3.57;;;;;;;8.63;47.85;98630.44;5035164;28;20041;-61
2021/04/03 08:39:25;;;;;;;6.00;3.70;;;;;;;8.81;48.90;98640.47;5033929;28;20367;-61
2021/04/03 08:41:55;;;;;;;3.90;3.13;;;;;;;8.62;50.39;98649.19;5034911;28;20120;-62
2021/04/03 08:44:25;;;;;;;5.23;3.53;;;;;;;8.03;54.85;98653.16;5035284;28;20034;-62
2021/04/03 08:46:58;;;;;;;3.33;3.00;;;;;;;8.02;56.98;98666.75;5037313;28;20378;-62
2021/04/03 08:49:29;;;;;;;4.13;3.73;;;;;;;7.61;58.26;98673.88;5037332;28;20037;-62
2021/04/03 08:51:55;;;;;;;4.43;3.87;;;;;;;7.44;59.53;98681.66;5037386;28;20033;-63
2021/04/03 08:54:20;;;;;;;5.73;4.23;;;;;;;7.57;60.93;98677.31;5037170;28;20087;-63
2021/04/03 08:56:46;;;;;;;6.87;5.07;;;;;;;7.29;61.82;98685.16;5035705;28;20041;-64
2021/04/03 08:59:19;;;;;;;5.57;4.53;;;;;;;7.50;61.00;98686.72;5033952;28;20164;-64
2021/04/03 09:01:48;;;;;;;7.27;4.77;;;;;;;7.51;61.74;98692.69;5037722;28;20032;-64
2021/04/03 09:04:14;;;;;;;6.43;5.20;;;;;;;7.71;60.52;98685.75;5038413;28;20115;-63
2021/04/03 09:06:39;;;;;;;5.07;4.57;;;;;;;7.36;60.74;98703.81;5040680;28;20570;-63
2021/04/03 09:09:24;;;;;;;5.37;4.07;;;;;;;7.25;63.49;98711.50;5040423;28;20084;-63
2021/04/03 09:12:00;;;;;;;9.35;5.57;;;;;;;6.84;65.44;98703.16;5036623;28;20036;-62
2021/04/03 09:14:35;;;;;;;7.03;5.30;;;;;;;7.15;67.30;98697.09;5049875;28;20045;-60
2021/04/03 09:17:02;;;;;;;5.37;4.37;;;;;;;7.32;65.36;98715.72;5036608;28;20343;-60
2021/04/03 09:19:34;;;;;;;5.87;4.10;;;;;;;7.25;65.88;98714.06;5033821;28;20040;-60
2021/04/03 09:22:00;;;;;;;6.53;4.70;;;;;;;7.15;66.83;98697.09;5035710;28;20033;-62
2021/04/03 09:24:40;;;;;;;6.87;4.73;;;;;;;7.33;66.77;98701.28;5033891;28;20461;-62
2021/04/03 09:27:14;;;;;;;8.87;4.37;;;;;;;7.39;66.50;98705.47;5033227;28;20405;-61
2021/04/03 09:29:41;;;;;;;5.43;4.40;;;;;;;7.12;65.47;98711.56;5032919;28;20040;-61
2021/04/03 09:32:08;;;;;;;7.93;4.87;;;;;;;7.47;67.17;98708.84;5034986;28;20375;-61
2021/04/03 09:34:34;;;;;;;5.60;4.30;;;;;;;7.71;65.95;98701.06;5036960;28;20040;-61
2021/04/03 09:37:19;;;;;;;6.27;4.10;;;;;;;7.25;66.79;98710.66;5036363;28;20025;-61
2021/04/03 09:39:56;;;;;;;5.17;4.03;;;;;;;7.03;67.61;98729.44;5032798;28;20040;-60
2021/04/03 09:42:26;;;;;;;5.77;3.93;;;;;;;6.70;67.67;98720.19;5034594;28;20025;-62
2021/04/03 09:44:56;;;;;;;5.30;4.07;;;;;;;6.84;67.60;98733.72;5032800;28;20312;-62
2021/04/03 09:47:23;;;;;;;7.00;5.07;;;;;;;6.47;69.50;98739.75;5035695;28;20340;-62
2021/04/03 09:49:49;;;;;;;5.37;4.00;;;;;;;6.48;71.12;98726.16;5031383;28;20038;-59
2021/04/03 09:52:16;;;;;;;5.40;2.80;;;;;;;6.65;70.17;98737.19;5037277;28;20033;-62
2021/04/03 09:54:43;;;;;;;4.30;2.67;;;;;;;6.60;69.83;98755.03;5034743;28;20370;-62
2021/04/03 09:57:09;;;;;;;4.77;3.40;;;;;;;6.37;72.10;98741.44;5033842;28;20032;-60
2021/04/03 09:59:35;;;;;;;5.47;3.00;;;;;;;6.39;69.83;98744.84;5030939;28;20057;-60
2021/04/03 10:02:01;;;;;;;5.23;3.60;;;;;;;6.41;71.92;98766.91;5033140;28;20033;-60
2021/04/03 10:04:28;;;;;;;4.63;2.30;;;;;;;6.35;70.76;98760.97;5032406;28;20064;-60
2021/04/03 10:06:55;;;;;;;4.67;3.27;;;;;;;6.31;71.64;98760.13;5033469;28;20300;-62
2021/04/03 10:09:21;;;;;;;4.13;2.53;;;;;;;6.31;72.23;98772.88;5033607;28;20076;-62
2021/04/03 10:11:47;;;;;;;4.93;3.07;;;;;;;6.18;72.46;98767.75;5034330;28;20060;-62
2021/04/03 10:14:13;;;;;;;3.20;2.17;;;;;;;6.30;72.45;98776.25;5034725;28;20037;-61
2021/04/03 10:16:38;;;;;;;2.67;2.43;;;;;;;6.21;71.48;98766.06;5033701;28;20425;-61
2021/04/03 10:19:04;;;;;;;4.50;2.60;;;;;;;6.12;72.38;98755.03;5034753;28;20025;-61
2021/04/03 10:21:30;;;;;;;3.77;2.60;;;;;;;6.39;73.21;98758.44;5034800;28;20533;-62
2021/04/03 10:23:55;;;;;;;4.23;2.87;;;;;;;6.42;72.32;98755.88;5033216;28;20026;-62
2021/04/03 10:26:21;;;;;;;6.23;2.80;;;;;;;6.31;71.90;98757.59;5031229;28;20030;-62
2021/04/03 10:28:47;;;;;;;4.47;2.47;;;;;;;6.33;70.67;98763.50;5034992;28;20074;-63
2021/04/03 10:31:13;;;;;;;2.63;2.43;;;;;;;6.55;70.10;98751.63;5034600;28;20083;-61
2021/04/03 10:33:38;;;;;;;4.97;2.97;;;;;;;7.06;68.23;98739.63;5034720;28;20022;-64
2021/04/03 10:36:05;;;;;;;3.47;2.70;;;;;;;7.51;65.51;98734.31;5033423;28;20394;-62
2021/04/03 10:38:32;;;;;;;4.77;3.37;;;;;;;7.78;65.49;98741.81;5033172;28;20034;-62
2021/04/03 10:40:58;;;;;;;4.30;3.00;;;;;;;7.94;64.77;98731.50;5033048;28;20063;-62
2021/04/03 10:43:24;;;;;;;4.37;3.20;;;;;;;8.51;63.87;98732.78;5035778;28;20036;-62
2021/04/03 10:45:50;;;;;;;3.63;2.90;;;;;;;8.67;61.58;98734.34;5030272;28;20029;-62
2021/04/03 10:48:15;;;;;;;4.10;3.70;;;;;;;8.74;60.26;98727.47;5029646;28;20031;-62
2021/04/03 10:50:41;;;;;;;4.17;3.07;;;;;;;8.62;59.53;98725.84;5033470;28;20025;-62
2021/04/03 10:53:07;;;;;;;5.13;3.20;;;;;;;8.45;60.78;98725.16;5030667;28;20025;-62
2021/04/03 10:55:33;;;;;;;3.37;3.00;;;;;;;8.30;55.89;98733.81;5031811;28;20706;-62
2021/04/03 10:57:59;;;;;;;3.40;3.03;;;;;;;8.03;63.61;98728.88;5034502;28;20163;-60
2021/04/03 11:00:25;;;;;;;8.80;3.80;;;;;;;8.02;65.03;98748.47;5030719;28;20099;-61
2021/04/03 11:02:50;;;;;;;4.67;2.83;;;;;;;7.95;63.44;98736.59;5029707;28;20025;-62
2021/04/03 11:05:16;;;;;;;4.83;3.20;;;;;;;8.30;62.60;98748.31;5034814;28;20053;-60
2021/04/03 11:07:41;;;;;;;4.07;3.10;;;;;;;8.68;62.22;98720.69;5033859;28;20047;-61
2021/04/03 11:10:07;;;;;;;3.50;3.20;;;;;;;8.78;60.18;98732.53;5035921;28;20045;-61
2021/04/03 11:12:32;;;;;;;5.00;3.13;;;;;;;8.44;56.91;98728.59;5042812;28;20100;-61
2021/04/03 11:14:58;;;;;;;3.27;3.03;;;;;;;8.74;57.69;98720.66;5031646;28;20667;-62
2021/04/03 11:17:23;;;;;;;5.23;3.57;;;;;;;9.07;56.97;98729.66;5021053;28;20032;-61
2021/04/03 11:19:49;;;;;;;4.93;3.37;;;;;;;8.73;57.82;98721.50;5024429;28;20064;-61
2021/04/03 11:22:14;;;;;;;4.10;2.83;;;;;;;8.51;58.29;98732.78;5026948;28;20095;-60
2021/04/03 11:24:39;;;;;;;5.37;2.57;;;;;;;8.28;60.32;98767.00;5015434;28;20034;-61
2021/04/03 11:27:05;;;;;;;3.17;2.77;;;;;;;7.18;64.40;98757.41;5015046;28;20068;-60
2021/04/03 11:29:31;;;;;;;3.40;3.07;;;;;;;6.94;65.49;98755.81;5020028;28;20092;-60
2021/04/03 11:31:56;;;;;;;3.23;2.30;;;;;;;6.87;64.74;98744.75;5021688;28;20017;-63
2021/04/03 11:34:21;;;;;;;2.67;2.30;;;;;;;6.92;65.21;98757.50;5019585;28;20037;-60
2021/04/03 11:36:47;;;;;;;5.57;3.13;;;;;;;6.62;67.61;98747.38;5018885;28;20033;-60
2021/04/03 11:39:12;;;;;;;5.77;3.80;;;;;;;6.70;68.47;98749.06;5018462;28;20324;-61
2021/04/03 11:41:37;;;;;;;3.30;3.00;;;;;;;6.31;69.46;98760.13;5017794;28;20030;-61